Time;durP1;ratioP1;P1;durP2;ratioP2;P2;SDS_P1;SDS_P2;PMS_P1;PMS_P2;Temp;Humidity;BMP_temperature;BMP_pressure;BME280_temperature;BME280_humidity;BME280_pressure;Samples;Min_cycle;Max_cycle;Signal;HPM_P1;HPM_P2
2023/03/05 00:00:14;;;;;;;49.13;18.02;;;;;;;-0.73;80.47;96468.91;5076401;28;20036;-75
2023/03/05 00:02:40;;;;;;;58.20;19.75;;;;;;;-0.75;80.08;96462.19;5077084;28;20063;-74
2023/03/05 00:05:11;;;;;;;58.25;20.48;;;;;;;-0.93;80.88;96461.38;5076043;28;20045;-75
2023/03/05 00:07:40;;;;;;;61.55;19.88;;;;;;;-0.86;81.29;96467.38;5076334;28;20048;-74
2023/03/05 00:10:08;;;;;;;63.90;20.45;;;;;;;-0.82;80.92;96454.34;5075959;28;20040;-74
2023/03/05 00:12:34;;;;;;;59.65;19.27;;;;;;;-0.89;81.26;96454.50;5076811;28;20049;-74
2023/03/05 00:15:00;;;;;;;70.80;20.90;;;;;;;-0.82;81.63;96446.31;5076172;28;20040;-74
2023/03/05 00:17:29;;;;;;;65.90;19.60;;;;;;;-0.91;81.62;96448.56;5075886;28;20043;-74
2023/03/05 00:19:56;;;;;;;49.67;18.80;;;;;;;-0.83;81.93;96440.16;5068416;28;20037;-74
2023/03/05 00:22:23;;;;;;;55.03;19.60;;;;;;;-0.87;81.80;96444.38;5075576;28;20499;-74
2023/03/05 00:24:50;;;;;;;64.20;19.95;;;;;;;-0.94;81.82;96442.88;5075813;28;20049;-74
2023/03/05 00:27:17;;;;;;;53.42;19.30;;;;;;;-0.90;81.79;96444.03;5067907;28;20056;-75
2023/03/05 00:29:43;;;;;;;51.70;19.40;;;;;;;-0.81;81.59;96448.72;5073000;28;20044;-74
2023/03/05 00:32:10;;;;;;;57.28;18.92;;;;;;;-0.66;81.63;96450.03;5072599;28;20045;-75
2023/03/05 00:34:37;;;;;;;53.35;19.95;;;;;;;-0.73;80.70;96444.03;5074524;28;20044;-74
2023/03/05 00:37:04;;;;;;;57.67;19.75;;;;;;;-0.70;80.73;96444.34;5075003;28;20059;-74
2023/03/05 00:39:31;;;;;;;47.78;17.70;;;;;;;-0.60;80.49;96446.38;5077487;28;20041;-74
2023/03/05 00:41:57;;;;;;;52.55;19.95;;;;;;;-0.66;80.48;96440.13;5070070;28;20068;-74
2023/03/05 00:44:24;;;;;;;54.70;18.40;;;;;;;-0.66;80.64;96439.34;5077736;28;20041;-74
2023/03/05 00:46:50;;;;;;;51.83;18.77;;;;;;;-0.64;80.72;96443.38;5078665;28;20108;-74
2023/03/05 00:49:18;;;;;;;56.22;19.70;;;;;;;-0.67;80.86;96437.72;5076475;28;20040;-74
2023/03/05 00:51:46;;;;;;;55.35;19.42;;;;;;;-0.59;80.43;96437.28;5078107;28;20041;-74
2023/03/05 00:54:13;;;;;;;50.22;19.17;;;;;;;-0.42;80.13;96438.06;5060024;28;20082;-75
2023/03/05 00:56:42;;;;;;;57.40;20.13;;;;;;;-0.47;80.13;96435.34;5075572;28;20047;-74
2023/03/05 00:59:09;;;;;;;53.53;18.40;;;;;;;-0.50;79.63;96433.16;5070562;28;20127;-74
2023/03/05 01:01:35;;;;;;;55.75;18.85;;;;;;;-0.42;80.21;96424.69;5070241;28;20102;-74
2023/03/05 01:04:02;;;;;;;55.53;19.58;;;;;;;-0.35;79.46;96425.34;5069911;28;20041;-73
2023/03/05 01:06:29;;;;;;;55.42;19.13;;;;;;;-0.29;79.20;96415.50;5070474;28;20044;-74
2023/03/05 01:08:58;;;;;;;58.22;20.42;;;;;;;-0.28;78.95;96417.13;5060988;28;20454;-74
2023/03/05 01:11:24;;;;;;;50.60;20.27;;;;;;;-0.45;79.73;96419.84;5070131;28;20101;-74
2023/03/05 01:13:51;;;;;;;60.40;19.27;;;;;;;-0.55;80.67;96419.69;5070341;28;20454;-74
2023/03/05 01:16:17;;;;;;;59.90;20.10;;;;;;;-0.33;80.21;96417.88;5069722;28;20523;-74
2023/03/05 01:18:44;;;;;;;55.08;20.40;;;;;;;-0.49;81.09;96413.38;5069865;28;20052;-75
2023/03/05 01:21:10;;;;;;;63.83;21.23;;;;;;;-0.67;81.84;96405.63;5069381;28;20470;-74
2023/03/05 01:23:37;;;;;;;54.47;19.20;;;;;;;-0.45;81.50;96403.81;5070263;28;20407;-74
2023/03/05 01:26:07;;;;;;;59.65;21.45;;;;;;;-0.68;81.77;96393.28;5069657;28;20040;-75
2023/03/05 01:28:34;;;;;;;57.42;20.33;;;;;;;-0.58;81.55;96394.25;5069718;28;20109;-74
2023/03/05 01:31:01;;;;;;;58.70;21.33;;;;;;;-0.63;81.59;96388.81;5061640;28;20064;-74
2023/03/05 01:33:27;;;;;;;56.88;19.90;;;;;;;-0.71;82.28;96383.09;5069454;28;20050;-74
2023/03/05 01:35:54;;;;;;;54.28;20.38;;;;;;;-0.72;82.52;96393.00;5069381;28;20488;-75
2023/03/05 01:38:23;;;;;;;59.97;20.92;;;;;;;-0.83;83.05;96392.03;5069379;28;20048;-75
2023/03/05 01:40:52;;;;;;;50.83;19.25;;;;;;;-0.76;83.20;96394.53;5070010;28;20692;-75
2023/03/05 01:43:24;;;;;;;53.45;20.48;;;;;;;-0.62;82.66;96386.97;5069157;28;20419;-75
2023/03/05 01:46:29;;;;;;;54.38;20.55;;;;;;;-0.77;82.79;96381.41;5069879;28;20047;-75
2023/03/05 01:49:00;;;;;;;64.00;20.67;;;;;;;-0.86;83.56;96379.13;5064431;28;20048;-74
2023/03/05 01:51:29;;;;;;;65.68;21.27;;;;;;;-0.85;83.75;96375.41;5057798;28;20041;-74
2023/03/05 01:53:57;;;;;;;59.20;20.65;;;;;;;-0.80;83.61;96372.81;5050119;28;20060;-74
2023/03/05 01:56:26;;;;;;;57.85;20.00;;;;;;;-0.74;83.11;96364.88;5049988;28;20069;-75
2023/03/05 01:59:02;;;;;;;60.88;21.58;;;;;;;-0.75;83.39;96373.94;5049615;28;20041;-74
2023/03/05 02:01:30;;;;;;;50.80;19.50;;;;;;;-0.73;83.38;96374.50;5076379;28;20048;-75
2023/03/05 02:03:56;;;;;;;55.55;19.73;;;;;;;-0.77;83.33;96362.69;5089519;28;20055;-74
2023/03/05 02:06:23;;;;;;;58.40;21.30;;;;;;;-0.74;83.73;96370.22;5089167;28;20043;-75
2023/03/05 02:08:50;;;;;;;65.57;20.75;;;;;;;-0.69;83.55;96370.28;5087159;28;20050;-74
2023/03/05 02:11:16;;;;;;;61.47;21.67;;;;;;;-0.68;83.64;96355.84;5076243;28;20048;-74
2023/03/05 02:13:43;;;;;;;64.32;23.00;;;;;;;-0.77;83.92;96360.03;5069266;28;20044;-74
2023/03/05 02:16:11;;;;;;;61.17;20.70;;;;;;;-0.82;84.36;96353.53;5068052;28;20435;-74
2023/03/05 02:18:37;;;;;;;59.85;20.65;;;;;;;-0.71;84.30;96353.69;5067668;28;20578;-74
2023/03/05 02:21:06;;;;;;;62.38;22.20;;;;;;;-0.70;83.82;96349.94;5068375;28;20412;-74
2023/03/05 02:23:35;;;;;;;63.78;21.77;;;;;;;-0.55;83.43;96345.63;5068808;28;20052;-74
2023/03/05 02:26:02;;;;;;;53.90;19.65;;;;;;;-0.54;83.50;96347.22;5068077;28;20037;-75
2023/03/05 02:28:35;;;;;;;54.40;20.95;;;;;;;-0.61;83.37;96343.13;5069274;28;20454;-74
2023/03/05 02:31:02;;;;;;;60.83;21.63;;;;;;;-0.68;84.13;96340.66;5071967;28;20123;-75
2023/03/05 02:33:29;;;;;;;61.80;21.70;;;;;;;-0.70;83.93;96336.59;5086638;28;20040;-74
2023/03/05 02:35:55;;;;;;;62.33;22.50;;;;;;;-0.56;83.58;96330.63;5069057;28;20060;-74
2023/03/05 02:38:23;;;;;;;61.92;21.58;;;;;;;-0.60;83.41;96331.38;5068602;28;20052;-74
2023/03/05 02:40:49;;;;;;;58.60;21.25;;;;;;;-0.67;84.17;96333.44;5070148;28;20045;-74
2023/03/05 02:43:16;;;;;;;62.60;22.35;;;;;;;-0.71;84.51;96330.44;5072216;28;20044;-74
2023/03/05 02:45:42;;;;;;;70.80;23.05;;;;;;;-0.72;84.76;96320.00;5071844;28;20407;-74
2023/03/05 02:48:11;;;;;;;60.08;22.33;;;;;;;-0.68;84.82;96318.41;5072073;28;20589;-74
2023/03/05 02:50:38;;;;;;;65.28;22.48;;;;;;;-0.71;84.58;96321.59;5072554;28;20045;-75
2023/03/05 02:53:05;;;;;;;66.95;23.27;;;;;;;-0.70;85.19;96315.19;5072097;28;20044;-75
2023/03/05 02:55:34;;;;;;;57.42;22.67;;;;;;;-0.69;84.89;96319.47;5072756;28;20048;-74
2023/03/05 02:58:01;;;;;;;58.63;20.75;;;;;;;-0.65;84.87;96313.38;5074251;28;20048;-74
2023/03/05 03:00:28;;;;;;;62.63;22.83;;;;;;;-0.61;84.41;96316.38;5071939;28;20047;-74
2023/03/05 03:02:54;;;;;;;60.38;23.45;;;;;;;-0.65;84.94;96315.25;5072197;28;20041;-74
2023/03/05 03:05:21;;;;;;;60.20;21.60;;;;;;;-0.61;84.64;96313.72;5071809;28;20547;-73
2023/03/05 03:07:47;;;;;;;69.53;23.25;;;;;;;-0.59;84.93;96300.88;5071865;28;20549;-74
2023/03/05 03:10:14;;;;;;;57.47;20.88;;;;;;;-0.53;85.08;96310.59;5071664;28;20071;-74
2023/03/05 03:12:43;;;;;;;64.35;22.83;;;;;;;-0.59;85.08;96295.53;5072131;28;20040;-74
2023/03/05 03:15:12;;;;;;;59.55;21.75;;;;;;;-0.54;84.96;96292.94;5071647;28;20415;-74
2023/03/05 03:17:39;;;;;;;63.53;21.85;;;;;;;-0.52;85.12;96296.19;5072188;28;20044;-75
2023/03/05 03:20:10;;;;;;;67.30;21.92;;;;;;;-0.52;85.22;96296.19;5071476;28;20045;-74
2023/03/05 03:22:36;;;;;;;66.57;22.33;;;;;;;-0.50;85.32;96294.06;5071466;28;20044;-74
2023/03/05 03:25:04;;;;;;;66.47;22.33;;;;;;;-0.44;85.08;96285.03;5071436;28;20045;-75
2023/03/05 03:27:30;;;;;;;58.85;22.38;;;;;;;-0.37;84.49;96293.66;5071755;28;20041;-74
2023/03/05 03:30:01;;;;;;;59.42;20.90;;;;;;;-0.24;84.28;96280.97;5071507;28;20044;-74
2023/03/05 03:32:28;;;;;;;61.45;22.15;;;;;;;-0.22;84.00;96282.31;5071183;28;20050;-74
2023/03/05 03:34:54;;;;;;;71.88;23.67;;;;;;;-0.31;84.27;96287.34;5071381;28;20044;-74
2023/03/05 03:37:21;;;;;;;59.33;20.50;;;;;;;-0.25;83.61;96284.72;5071390;28;20041;-74
2023/03/05 03:39:47;;;;;;;65.38;20.63;;;;;;;-0.32;84.55;96280.34;5071869;28;20040;-74
2023/03/05 03:42:16;;;;;;;58.60;22.02;;;;;;;-0.28;84.67;96272.63;5070864;28;20778;-74
2023/03/05 03:44:43;;;;;;;60.08;22.02;;;;;;;-0.35;85.38;96280.84;5071594;28;20055;-74
2023/03/05 03:47:11;;;;;;;59.53;21.63;;;;;;;-0.27;85.47;96275.03;5071013;28;20056;-74
2023/03/05 03:49:37;;;;;;;65.10;24.45;;;;;;;-0.37;86.02;96274.13;5071685;28;20060;-74
2023/03/05 03:52:04;;;;;;;62.80;22.17;;;;;;;-0.23;85.57;96277.25;5070789;28;20044;-74
2023/03/05 03:54:31;;;;;;;57.65;22.63;;;;;;;-0.30;86.17;96267.53;5071429;28;20041;-74
2023/03/05 03:56:58;;;;;;;58.97;21.95;;;;;;;-0.30;86.27;96272.91;5071213;28;20044;-74
2023/03/05 03:59:24;;;;;;;59.08;21.98;;;;;;;-0.35;86.63;96269.34;5070934;28;20048;-74
2023/03/05 04:01:51;;;;;;;64.88;21.98;;;;;;;-0.31;85.81;96267.81;5071010;28;20040;-74
2023/03/05 04:04:19;;;;;;;65.32;23.27;;;;;;;-0.32;86.12;96264.28;5070885;28;20055;-75
2023/03/05 04:06:45;;;;;;;58.38;22.00;;;;;;;-0.35;86.36;96262.13;5071156;28;20051;-74
2023/03/05 04:09:12;;;;;;;60.83;22.23;;;;;;;-0.42;86.85;96264.19;5071639;28;20045;-74
2023/03/05 04:11:38;;;;;;;64.07;22.45;;;;;;;-0.40;86.97;96264.75;5071901;28;20048;-75
2023/03/05 04:14:05;;;;;;;56.42;21.75;;;;;;;-0.28;86.48;96254.72;5066776;28;20519;-74
2023/03/05 04:16:32;;;;;;;57.67;21.10;;;;;;;-0.29;86.20;96247.75;5051910;28;20064;-74
2023/03/05 04:18:58;;;;;;;65.03;21.77;;;;;;;-0.34;86.50;96252.25;5051870;28;20041;-75
2023/03/05 04:21:26;;;;;;;61.25;21.48;;;;;;;-0.38;86.71;96249.25;5063846;28;20093;-75
2023/03/05 04:23:53;;;;;;;71.38;21.45;;;;;;;-0.29;87.02;96247.75;5074173;28;20045;-74
2023/03/05 04:26:19;;;;;;;69.07;21.73;;;;;;;-0.32;86.99;96245.56;5071899;28;20049;-74
2023/03/05 04:28:47;;;;;;;65.72;22.90;;;;;;;-0.31;87.12;96235.69;5072962;28;20049;-75
2023/03/05 04:31:13;;;;;;;60.78;21.67;;;;;;;-0.35;87.16;96243.41;5084644;28;20102;-75
2023/03/05 04:33:40;;;;;;;59.60;21.23;;;;;;;-0.36;87.31;96236.44;5093656;28;20048;-74
2023/03/05 04:36:07;;;;;;;67.60;22.08;;;;;;;-0.32;87.25;96232.19;5091630;28;20495;-75
2023/03/05 04:38:35;;;;;;;61.88;20.98;;;;;;;-0.31;87.24;96233.81;5084954;28;20052;-74
2023/03/05 04:41:01;;;;;;;59.83;20.38;;;;;;;-0.28;86.97;96233.31;5072787;28;20036;-75
2023/03/05 04:43:28;;;;;;;62.42;21.13;;;;;;;-0.10;86.57;96228.69;5064254;28;20037;-75
2023/03/05 04:45:55;;;;;;;72.05;22.52;;;;;;;-0.18;86.02;96221.91;5070844;28;20048;-75
2023/03/05 04:48:21;;;;;;;53.17;18.92;;;;;;;-0.18;86.10;96227.25;5072404;28;20045;-74
2023/03/05 04:50:48;;;;;;;59.38;20.35;;;;;;;-0.09;86.11;96224.94;5070044;28;20033;-74
2023/03/05 04:53:14;;;;;;;59.40;20.80;;;;;;;-0.05;85.78;96226.84;5069213;28;20043;-74
2023/03/05 04:55:42;;;;;;;58.33;19.70;;;;;;;-0.04;85.61;96224.97;5070127;28;20036;-75
2023/03/05 04:58:09;;;;;;;63.60;20.50;;;;;;;-0.08;86.10;96218.50;5069593;28;20048;-74
2023/03/05 05:00:36;;;;;;;69.75;21.50;;;;;;;-0.06;85.98;96224.41;5070285;28;20047;-74
2023/03/05 05:03:02;;;;;;;67.45;20.50;;;;;;;-0.13;86.40;96218.47;5069037;28;20045;-74
2023/03/05 05:05:29;;;;;;;64.05;20.33;;;;;;;-0.03;86.25;96213.22;5069867;28;20044;-74
2023/03/05 05:07:57;;;;;;;61.75;20.85;;;;;;;-0.10;86.49;96209.94;5070044;28;20044;-74
2023/03/05 05:10:24;;;;;;;62.22;20.02;;;;;;;-0.02;86.13;96214.81;5069423;28;20040;-74
2023/03/05 05:12:52;;;;;;;63.80;20.77;;;;;;;-0.06;86.13;96209.16;5069777;28;20045;-74
2023/03/05 05:15:19;;;;;;;62.22;19.35;;;;;;;-0.05;86.23;96210.00;5069625;28;20048;-74
2023/03/05 05:17:46;;;;;;;61.60;19.30;;;;;;;-0.04;86.16;96208.91;5069573;28;20040;-74
2023/03/05 05:20:14;;;;;;;61.92;20.60;;;;;;;-0.09;86.55;96208.88;5061321;28;20043;-74
2023/03/05 05:22:41;;;;;;;62.40;20.48;;;;;;;-0.03;86.62;96208.66;5069607;28;20071;-74
2023/03/05 05:25:09;;;;;;;79.13;21.88;;;;;;;-0.04;86.85;96211.59;5068745;28;20056;-74
2023/03/05 05:27:35;;;;;;;62.10;21.17;;;;;;;-0.09;87.10;96206.19;5069759;28;20080;-74
2023/03/05 05:30:04;;;;;;;69.30;22.13;;;;;;;-0.09;87.51;96206.19;5070177;28;20061;-75
2023/03/05 05:32:30;;;;;;;63.25;21.08;;;;;;;-0.10;87.79;96208.06;5070580;28;20036;-74
2023/03/05 05:34:58;;;;;;;76.63;21.63;;;;;;;-0.13;87.77;96215.78;5069340;28;20407;-74
2023/03/05 05:37:26;;;;;;;64.65;20.88;;;;;;;-0.07;87.92;96207.53;5069760;28;20044;-74
2023/03/05 05:39:53;;;;;;;62.72;19.67;;;;;;;-0.01;87.61;96211.06;5069716;28;20056;-75
2023/03/05 05:42:21;;;;;;;56.40;20.52;;;;;;;-0.02;87.78;96204.09;5069646;28;20044;-74
2023/03/05 05:44:48;;;;;;;53.80;20.17;;;;;;;-0.09;87.83;96212.34;5070290;28;20480;-74
2023/03/05 05:47:17;;;;;;;65.18;20.27;;;;;;;-0.05;87.92;96210.78;5061425;28;20047;-74
2023/03/05 05:49:44;;;;;;;69.72;22.48;;;;;;;-0.11;88.01;96213.66;5070290;28;20419;-74
2023/03/05 05:52:10;;;;;;;64.25;21.45;;;;;;;-0.09;87.92;96214.22;5070385;28;20043;-74
2023/03/05 05:54:37;;;;;;;63.92;20.88;;;;;;;-0.04;88.01;96216.94;5071550;28;20051;-74
2023/03/05 05:57:04;;;;;;;62.95;20.90;;;;;;;0.04;87.56;96213.78;5070621;28;20541;-74
2023/03/05 05:59:30;;;;;;;91.97;32.25;;;;;;;0.04;87.39;96219.16;5071748;28;20119;-75
2023/03/05 06:01:57;;;;;;;71.60;22.42;;;;;;;-0.05;87.73;96215.34;5071443;28;20045;-74
2023/03/05 06:04:25;;;;;;;62.65;20.30;;;;;;;0.01;87.82;96221.53;5070820;28;20049;-74
2023/03/05 06:06:51;;;;;;;61.92;20.70;;;;;;;-0.05;87.94;96218.81;5070294;28;20045;-74
2023/03/05 06:09:18;;;;;;;68.63;22.55;;;;;;;-0.06;87.80;96219.06;5070244;28;20048;-74
2023/03/05 06:11:44;;;;;;;78.05;22.50;;;;;;;-0.03;88.09;96221.25;5070574;28;20044;-74
2023/03/05 06:14:12;;;;;;;67.20;20.85;;;;;;;0.07;88.05;96228.56;5069713;28;20132;-75
2023/03/05 06:16:39;;;;;;;66.40;22.50;;;;;;;0.05;87.73;96226.13;5072029;28;20048;-74
2023/03/05 06:19:05;;;;;;;61.88;21.13;;;;;;;0.15;87.63;96222.72;5072966;28;20415;-74
2023/03/05 06:21:33;;;;;;;73.35;22.65;;;;;;;0.07;87.63;96217.84;5074114;28;20496;-75
2023/03/05 06:24:00;;;;;;;68.90;21.48;;;;;;;0.19;87.27;96224.63;5074559;28;20045;-74
2023/03/05 06:26:26;;;;;;;63.80;21.40;;;;;;;0.07;87.61;96224.00;5062012;28;20585;-74
2023/03/05 06:28:54;;;;;;;55.17;20.73;;;;;;;0.16;87.56;96219.81;5053290;28;20067;-74
2023/03/05 06:31:22;;;;;;;66.55;22.83;;;;;;;0.09;87.36;96213.84;5051219;28;20719;-74
2023/03/05 06:33:50;;;;;;;71.85;21.75;;;;;;;0.05;88.05;96220.75;5052753;28;20048;-74
2023/03/05 06:36:18;;;;;;;54.92;21.27;;;;;;;0.00;87.91;96212.72;5052212;28;20124;-74
2023/03/05 06:38:46;;;;;;;68.13;21.95;;;;;;;-0.01;88.31;96216.44;5052212;28;20037;-74
2023/03/05 06:41:14;;;;;;;72.78;23.20;;;;;;;-0.04;88.34;96219.63;5061841;28;20066;-75
2023/03/05 06:43:43;;;;;;;65.90;21.15;;;;;;;0.04;88.43;96211.13;5073138;28;20124;-74
2023/03/05 06:46:12;;;;;;;70.90;20.63;;;;;;;0.12;88.41;96210.66;5070780;28;20051;-74
2023/03/05 06:48:39;;;;;;;73.63;23.52;;;;;;;0.06;87.97;96206.34;5071460;28;20575;-75
2023/03/05 06:51:13;;;;;;;74.68;23.00;;;;;;;0.10;87.55;96207.41;5079261;28;20036;-76
2023/03/05 06:53:39;;;;;;;70.80;22.30;;;;;;;0.06;88.09;96206.34;5081383;28;20051;-76
2023/03/05 06:56:08;;;;;;;76.78;23.08;;;;;;;0.02;88.12;96210.56;5069054;28;20044;-75
2023/03/05 06:58:35;;;;;;;69.53;22.63;;;;;;;0.11;88.31;96209.06;5070061;28;20045;-76
2023/03/05 07:01:04;;;;;;;76.15;23.55;;;;;;;0.06;88.23;96203.66;5078860;28;20047;-76
2023/03/05 07:03:30;;;;;;;77.72;23.75;;;;;;;0.02;88.69;96209.78;5089820;28;20443;-75
2023/03/05 07:05:57;;;;;;;58.83;21.15;;;;;;;0.22;88.07;96205.41;5078313;28;20572;-75
2023/03/05 07:08:23;;;;;;;72.43;22.08;;;;;;;0.27;87.21;96199.28;5068786;28;20045;-75
2023/03/05 07:10:49;;;;;;;73.55;23.58;;;;;;;0.15;87.78;96204.78;5069325;28;20127;-75
2023/03/05 07:13:17;;;;;;;68.32;22.75;;;;;;;0.16;88.06;96198.38;5070066;28;20044;-75
2023/03/05 07:15:44;;;;;;;72.10;22.85;;;;;;;0.19;87.98;96203.22;5069120;28;20123;-75
2023/03/05 07:18:10;;;;;;;70.40;22.33;;;;;;;0.21;87.69;96209.13;5068869;28;20059;-75
2023/03/05 07:20:37;;;;;;;75.43;22.52;;;;;;;0.18;87.97;96198.13;5070178;28;20040;-76
2023/03/05 07:23:04;;;;;;;73.93;23.40;;;;;;;0.19;87.78;96200.53;5078600;28;20063;-75
2023/03/05 07:25:31;;;;;;;66.85;22.70;;;;;;;0.32;87.37;96203.88;5080974;28;20044;-76
2023/03/05 07:27:57;;;;;;;61.78;22.10;;;;;;;0.12;87.71;96196.47;5089487;28;20056;-75
2023/03/05 07:30:25;;;;;;;68.25;22.77;;;;;;;0.17;87.94;96204.56;5076091;28;20056;-75
2023/03/05 07:32:52;;;;;;;62.00;22.33;;;;;;;0.21;87.87;96203.78;5077648;28;20048;-76
2023/03/05 07:35:18;;;;;;;59.40;21.08;;;;;;;0.35;87.77;96200.66;5069757;28;20064;-75
2023/03/05 07:37:45;;;;;;;55.97;21.08;;;;;;;0.55;86.99;96200.00;5070433;28;20083;-76
2023/03/05 07:40:12;;;;;;;60.75;22.08;;;;;;;0.64;85.78;96196.59;5072297;28;20049;-76
2023/03/05 07:42:38;;;;;;;63.67;22.52;;;;;;;0.47;85.69;96201.28;5079460;28;20055;-76
2023/03/05 07:45:06;;;;;;;71.18;20.98;;;;;;;0.47;86.62;96196.75;5075709;28;20499;-75
2023/03/05 07:47:35;;;;;;;59.03;20.85;;;;;;;0.68;86.17;96194.16;5082625;28;20048;-76
2023/03/05 07:50:02;;;;;;;62.42;21.58;;;;;;;0.66;85.44;96188.28;5080283;28;20043;-76
2023/03/05 07:52:29;;;;;;;68.15;22.48;;;;;;;0.63;85.59;96189.63;5096012;28;20048;-76
2023/03/05 07:54:55;;;;;;;65.05;21.92;;;;;;;0.56;86.06;96194.38;5088071;28;20049;-75
2023/03/05 07:57:22;;;;;;;67.05;22.95;;;;;;;0.66;86.09;96189.09;5068501;28;20049;-75
2023/03/05 07:59:49;;;;;;;63.40;20.30;;;;;;;0.68;86.12;96191.50;5076505;28;20091;-76
2023/03/05 08:02:18;;;;;;;60.35;21.83;;;;;;;0.56;85.81;96186.34;5073532;28;20065;-75
2023/03/05 08:04:46;;;;;;;56.88;19.92;;;;;;;0.59;86.59;96187.72;5076566;28;20075;-75
2023/03/05 08:07:14;;;;;;;70.15;22.80;;;;;;;0.68;86.47;96192.31;5069842;28;20052;-75
2023/03/05 08:09:41;;;;;;;72.47;23.27;;;;;;;0.63;86.11;96176.22;5069255;28;20075;-74
2023/03/05 08:12:09;;;;;;;70.70;23.35;;;;;;;0.72;85.46;96177.31;5068075;28;20504;-74
2023/03/05 08:14:36;;;;;;;66.63;21.65;;;;;;;0.66;86.42;96182.91;5068351;28;20127;-75
2023/03/05 08:17:04;;;;;;;65.93;22.30;;;;;;;0.72;86.36;96180.00;5069812;28;20060;-75
2023/03/05 08:19:31;;;;;;;58.17;21.27;;;;;;;0.62;86.53;96181.81;5089603;28;20044;-76
2023/03/05 08:21:59;;;;;;;69.60;22.33;;;;;;;0.57;86.94;96179.91;5090757;28;20066;-76
2023/03/05 08:24:28;;;;;;;60.60;20.65;;;;;;;0.63;87.04;96181.56;5081614;28;20047;-76
2023/03/05 08:26:55;;;;;;;63.10;21.42;;;;;;;0.66;86.70;96173.00;5080677;28;20040;-76
2023/03/05 08:29:22;;;;;;;76.55;23.40;;;;;;;0.68;86.79;96178.09;5089023;28;20052;-76
2023/03/05 08:31:52;;;;;;;65.50;22.33;;;;;;;0.67;86.54;96171.13;5086500;28;20079;-76
2023/03/05 08:34:19;;;;;;;62.10;20.58;;;;;;;0.82;86.20;96165.84;5082904;28;20048;-75
2023/03/05 08:36:45;;;;;;;62.15;20.38;;;;;;;0.86;85.66;96163.47;5067832;28;20049;-76
2023/03/05 08:39:13;;;;;;;66.47;20.85;;;;;;;0.93;85.63;96164.81;5068993;28;20152;-75
2023/03/05 08:41:40;;;;;;;60.47;21.15;;;;;;;1.11;85.37;96168.94;5087727;28;20047;-76
2023/03/05 08:44:07;;;;;;;60.78;21.90;;;;;;;1.11;85.18;96162.78;5087508;28;20514;-75
2023/03/05 08:46:33;;;;;;;63.65;21.13;;;;;;;1.18;84.95;96161.44;5080696;28;20052;-76
2023/03/05 08:49:00;;;;;;;60.88;20.77;;;;;;;1.15;84.51;96159.31;5067371;28;20515;-76
2023/03/05 08:51:26;;;;;;;65.85;22.05;;;;;;;0.99;84.39;96161.13;5078650;28;20059;-76
2023/03/05 08:53:54;;;;;;;66.97;22.05;;;;;;;0.96;85.19;96163.50;5067993;28;20075;-77
2023/03/05 08:56:22;;;;;;;64.93;21.80;;;;;;;1.00;85.60;96156.56;5066931;28;20060;-75
2023/03/05 08:58:51;;;;;;;67.43;23.40;;;;;;;1.10;85.13;96153.94;5067265;28;20066;-75
2023/03/05 09:01:17;;;;;;;65.18;20.85;;;;;;;1.13;84.97;96156.06;5057869;28;20040;-77
2023/03/05 09:03:45;;;;;;;58.70;20.60;;;;;;;1.21;85.12;96152.88;5064910;28;20056;-77
2023/03/05 09:06:12;;;;;;;78.53;24.75;;;;;;;1.18;84.19;96152.59;5061425;28;20411;-76
2023/03/05 09:08:39;;;;;;;71.85;22.08;;;;;;;0.99;84.78;96144.19;5063014;28;20510;-76
2023/03/05 09:11:07;;;;;;;80.25;23.77;;;;;;;0.96;85.53;96148.22;5061625;28;20051;-75
2023/03/05 09:13:35;;;;;;;59.75;21.23;;;;;;;0.97;85.61;96152.53;5063847;28;20052;-75
2023/03/05 09:16:03;;;;;;;77.50;22.65;;;;;;;1.01;84.75;96150.94;5062660;28;20040;-76
2023/03/05 09:18:30;;;;;;;65.72;22.08;;;;;;;1.03;85.17;96147.97;5058857;28;20052;-74
2023/03/05 09:20:57;;;;;;;70.45;23.75;;;;;;;0.94;85.38;96144.19;5064615;28;20047;-75
2023/03/05 09:23:24;;;;;;;71.60;23.15;;;;;;;0.92;85.78;96149.81;5063175;28;20040;-76
2023/03/05 09:25:51;;;;;;;72.72;22.45;;;;;;;1.02;86.05;96149.06;5063966;28;20049;-76
2023/03/05 09:28:17;;;;;;;74.45;22.30;;;;;;;1.11;85.47;96147.50;5062442;28;20055;-75
2023/03/05 09:30:45;;;;;;;67.45;21.63;;;;;;;1.28;85.65;96137.34;5064706;28;20044;-76
2023/03/05 09:33:12;;;;;;;62.75;21.92;;;;;;;1.56;85.41;96137.94;5069678;28;20502;-76
2023/03/05 09:35:38;;;;;;;68.43;22.70;;;;;;;1.66;83.51;96137.94;5066453;28;20048;-75
2023/03/05 09:38:05;;;;;;;65.45;21.50;;;;;;;1.64;82.75;96134.75;5068217;28;20418;-73
2023/03/05 09:40:45;;;;;;;64.80;21.60;;;;;;;1.52;83.27;96136.88;5069511;28;20452;-76
2023/03/05 09:43:24;;;;;;;59.20;22.00;;;;;;;1.40;82.97;96130.94;5040316;28;20124;-75
2023/03/05 09:46:04;;;;;;;51.45;18.63;;;;;;;1.40;84.45;96133.63;5041954;28;20069;-76
2023/03/05 09:48:46;;;;;;;56.13;20.27;;;;;;;1.62;84.42;96130.69;5041431;28;20048;-75
2023/03/05 09:51:19;;;;;;;61.65;21.42;;;;;;;1.78;83.48;96140.41;5047098;28;20713;-76
2023/03/05 09:53:49;;;;;;;54.67;20.95;;;;;;;1.98;82.97;96137.72;5048798;28;20492;-76
2023/03/05 09:56:19;;;;;;;55.53;20.27;;;;;;;1.79;82.00;96137.44;5046384;28;20049;-75
2023/03/05 09:58:48;;;;;;;60.25;21.25;;;;;;;1.58;82.24;96135.81;5047709;28;20048;-76
2023/03/05 10:01:20;;;;;;;50.53;19.35;;;;;;;1.69;82.79;96125.91;5048457;28;20045;-75
2023/03/05 10:03:56;;;;;;;62.72;20.85;;;;;;;2.00;82.87;96129.41;5048092;28;20041;-76
2023/03/05 10:06:24;;;;;;;51.85;18.58;;;;;;;2.06;81.13;96122.94;5047355;28;20072;-76
2023/03/05 10:08:56;;;;;;;57.05;20.20;;;;;;;2.11;82.11;96128.31;5047585;28;20125;-76
2023/03/05 10:11:38;;;;;;;48.17;19.98;;;;;;;2.02;80.43;96120.00;5050124;28;20048;-76
2023/03/05 10:14:05;;;;;;;60.97;21.77;;;;;;;1.96;81.82;96114.91;5064132;28;20044;-75
2023/03/05 10:17:04;;;;;;;54.17;20.13;;;;;;;2.04;80.37;96122.44;5067724;28;20063;-75
2023/03/05 10:19:55;;;;;;;57.13;20.33;;;;;;;2.02;80.26;96116.50;5065693;28;20047;-75
2023/03/05 10:22:24;;;;;;;53.67;19.73;;;;;;;2.17;80.06;96105.75;5062087;28;20087;-75
2023/03/05 10:25:09;;;;;;;74.80;23.30;;;;;;;2.11;80.27;96106.84;5066265;28;20056;-76
2023/03/05 10:27:46;;;;;;;70.78;21.92;;;;;;;2.06;80.89;96110.31;5065152;28;20138;-75
2023/03/05 10:30:29;;;;;;;52.25;19.35;;;;;;;2.32;80.09;96105.72;5066952;28;20045;-76
2023/03/05 10:33:06;;;;;;;53.15;19.17;;;;;;;2.20;79.75;96099.84;5065630;28;20052;-75
2023/03/05 10:36:01;;;;;;;59.63;20.20;;;;;;;2.09;79.26;96092.88;5066420;28;20048;-76
2023/03/05 10:38:44;;;;;;;60.05;19.80;;;;;;;2.09;79.97;96087.50;5066168;28;20435;-75
2023/03/05 10:41:21;;;;;;;59.10;20.95;;;;;;;2.08;80.19;96088.56;5063890;28;20045;-75
2023/03/05 10:43:56;;;;;;;59.20;19.60;;;;;;;2.12;79.56;96088.84;5064611;28;20045;-77
2023/03/05 10:46:31;;;;;;;54.90;19.10;;;;;;;2.00;80.12;96089.13;5064122;28;20046;-77
2023/03/05 10:49:01;;;;;;;54.08;20.15;;;;;;;1.93;80.32;96083.19;5067203;28;20048;-76
2023/03/05 10:51:34;;;;;;;64.63;20.63;;;;;;;2.01;80.62;96085.34;5067466;28;20048;-76
2023/03/05 10:54:09;;;;;;;53.88;20.08;;;;;;;2.01;79.44;96074.63;5068480;28;20186;-76
2023/03/05 10:56:35;;;;;;;68.63;23.30;;;;;;;1.97;80.85;96074.34;5066733;28;20055;-77
2023/03/05 10:59:02;;;;;;;50.90;17.92;;;;;;;2.12;79.55;96065.47;5070193;28;20040;-76
2023/03/05 11:01:30;;;;;;;57.47;21.00;;;;;;;2.12;80.07;96065.47;5067232;28;20068;-76
2023/03/05 11:03:59;;;;;;;62.75;21.00;;;;;;;1.97;80.41;96063.59;5067737;28;20044;-76
2023/03/05 11:06:34;;;;;;;53.17;18.38;;;;;;;2.09;80.16;96060.66;5067319;28;20538;-76
2023/03/05 11:09:23;;;;;;;70.75;21.70;;;;;;;2.05;80.00;96054.19;5067791;28;20051;-75
2023/03/05 11:12:12;;;;;;;54.47;18.55;;;;;;;2.17;79.75;96051.22;5047887;28;20321;-76
2023/03/05 11:14:40;;;;;;;75.10;22.40;;;;;;;2.40;79.34;96055.19;5058027;28;20041;-76
2023/03/05 11:17:24;;;;;;;49.30;18.50;;;;;;;2.21;78.92;96047.72;5065478;28;20051;-76
2023/03/05 11:19:51;;;;;;;72.00;20.10;;;;;;;2.09;79.29;96041.84;5065414;28;20045;-76
2023/03/05 11:22:20;;;;;;;55.67;19.23;;;;;;;2.13;78.94;96044.78;5066485;28;20060;-76
2023/03/05 11:25:05;;;;;;;52.88;17.80;;;;;;;2.30;79.75;96038.03;5076136;28;20043;-81
2023/03/05 11:27:36;;;;;;;69.18;20.50;;;;;;;2.50;79.39;96034.47;5069236;28;20068;-75